sensor_id;sensor_type;location;lat;lon;timestamp;temperature;humidity
14283;DHT22;7225;59.282;18.344;2023-01-16T00:02:07;5.10;99.90
14283;DHT22;7225;59.282;18.344;2023-01-16T00:04:33;5.10;99.90
14283;DHT22;7225;59.282;18.344;2023-01-16T00:07:02;5.10;99.90
14283;DHT22;7225;59.282;18.344;2023-01-16T00:09:30;5.10;99.90
14283;DHT22;7225;59.282;18.344;2023-01-16T00:11:58;5.10;99.90
14283;DHT22;7225;59.282;18.344;2023-01-16T00:14:29;5.10;99.90
14283;DHT22;7225;59.282;18.344;2023-01-16T00:16:57;5.10;99.90
14283;DHT22;7225;59.282;18.344;2023-01-16T00:19:26;5.10;99.90
14283;DHT22;7225;59.282;18.344;2023-01-16T00:21:54;5.10;99.90
14283;DHT22;7225;59.282;18.344;2023-01-16T00:24:22;5.10;99.90
14283;DHT22;7225;59.282;18.344;2023-01-16T00:26:51;5.10;99.90
14283;DHT22;7225;59.282;18.344;2023-01-16T00:29:19;5.10;99.90
14283;DHT22;7225;59.282;18.344;2023-01-16T00:31:46;5.10;99.90
14283;DHT22;7225;59.282;18.344;2023-01-16T00:34:14;5.10;99.90
14283;DHT22;7225;59.282;18.344;2023-01-16T00:36:42;5.10;99.90
14283;DHT22;7225;59.282;18.344;2023-01-16T00:39:09;5.10;99.90
14283;DHT22;7225;59.282;18.344;2023-01-16T00:41:37;5.10;99.90
14283;DHT22;7225;59.282;18.344;2023-01-16T00:44:05;5.10;99.90
14283;DHT22;7225;59.282;18.344;2023-01-16T00:46:33;5.10;99.90
14283;DHT22;7225;59.282;18.344;2023-01-16T00:49:02;5.10;99.90
14283;DHT22;7225;59.282;18.344;2023-01-16T00:51:29;5.10;99.90
14283;DHT22;7225;59.282;18.344;2023-01-16T00:53:57;5.10;99.90
14283;DHT22;7225;59.282;18.344;2023-01-16T00:56:25;5.10;99.90
14283;DHT22;7225;59.282;18.344;2023-01-16T00:58:53;5.10;99.90
14283;DHT22;7225;59.282;18.344;2023-01-16T01:01:21;5.10;99.90
14283;DHT22;7225;59.282;18.344;2023-01-16T01:03:49;5.10;99.90
14283;DHT22;7225;59.282;18.344;2023-01-16T01:06:16;5.10;99.90
14283;DHT22;7225;59.282;18.344;2023-01-16T01:08:44;5.10;99.90
14283;DHT22;7225;59.282;18.344;2023-01-16T01:11:14;5.10;99.90
14283;DHT22;7225;59.282;18.344;2023-01-16T01:13:43;5.10;99.90
14283;DHT22;7225;59.282;18.344;2023-01-16T01:16:12;5.10;99.90
14283;DHT22;7225;59.282;18.344;2023-01-16T01:18:39;5.10;99.90
14283;DHT22;7225;59.282;18.344;2023-01-16T01:21:06;5.10;99.90
14283;DHT22;7225;59.282;18.344;2023-01-16T01:23:36;5.10;99.90
14283;DHT22;7225;59.282;18.344;2023-01-16T01:26:09;5.20;99.90
14283;DHT22;7225;59.282;18.344;2023-01-16T01:28:39;5.10;99.90
14283;DHT22;7225;59.282;18.344;2023-01-16T01:31:09;5.10;99.90
14283;DHT22;7225;59.282;18.344;2023-01-16T01:33:38;5.10;99.90
14283;DHT22;7225;59.282;18.344;2023-01-16T01:36:07;5.10;99.90
14283;DHT22;7225;59.282;18.344;2023-01-16T01:38:34;5.10;99.90
14283;DHT22;7225;59.282;18.344;2023-01-16T01:41:03;5.10;99.90
14283;DHT22;7225;59.282;18.344;2023-01-16T01:43:41;5.10;99.90
14283;DHT22;7225;59.282;18.344;2023-01-16T01:46:27;5.20;99.90
14283;DHT22;7225;59.282;18.344;2023-01-16T01:51:51;5.20;99.90
14283;DHT22;7225;59.282;18.344;2023-01-16T01:54:24;5.20;99.90
14283;DHT22;7225;59.282;18.344;2023-01-16T01:57:04;5.20;99.90
14283;DHT22;7225;59.282;18.344;2023-01-16T01:59:38;5.20;99.90
14283;DHT22;7225;59.282;18.344;2023-01-16T02:02:09;5.20;99.90
14283;DHT22;7225;59.282;18.344;2023-01-16T02:04:40;5.20;99.90
14283;DHT22;7225;59.282;18.344;2023-01-16T02:07:13;5.20;99.90
14283;DHT22;7225;59.282;18.344;2023-01-16T02:09:40;5.20;99.90
14283;DHT22;7225;59.282;18.344;2023-01-16T02:12:10;5.20;99.90
14283;DHT22;7225;59.282;18.344;2023-01-16T02:14:41;5.20;99.90
14283;DHT22;7225;59.282;18.344;2023-01-16T02:17:12;5.20;99.90
14283;DHT22;7225;59.282;18.344;2023-01-16T02:20:24;5.20;99.90
14283;DHT22;7225;59.282;18.344;2023-01-16T02:26:07;5.20;99.90
14283;DHT22;7225;59.282;18.344;2023-01-16T02:31:48;5.20;99.90
14283;DHT22;7225;59.282;18.344;2023-01-16T02:34:44;5.10;99.90
14283;DHT22;7225;59.282;18.344;2023-01-16T02:37:24;5.10;99.90
14283;DHT22;7225;59.282;18.344;2023-01-16T02:45:32;5.00;99.90
14283;DHT22;7225;59.282;18.344;2023-01-16T02:48:12;5.00;99.90
14283;DHT22;7225;59.282;18.344;2023-01-16T02:51:02;5.10;99.90
14283;DHT22;7225;59.282;18.344;2023-01-16T02:53:41;5.00;99.90
14283;DHT22;7225;59.282;18.344;2023-01-16T02:56:17;5.10;99.90
14283;DHT22;7225;59.282;18.344;2023-01-16T02:58:49;5.00;99.90
14283;DHT22;7225;59.282;18.344;2023-01-16T03:01:20;5.00;99.90
14283;DHT22;7225;59.282;18.344;2023-01-16T03:20:39;5.00;99.90
14283;DHT22;7225;59.282;18.344;2023-01-16T03:23:28;5.00;99.90
14283;DHT22;7225;59.282;18.344;2023-01-16T03:26:04;5.00;99.90
14283;DHT22;7225;59.282;18.344;2023-01-16T03:31:29;4.90;99.90
14283;DHT22;7225;59.282;18.344;2023-01-16T03:34:50;4.90;99.90
14283;DHT22;7225;59.282;18.344;2023-01-16T03:37:09;4.90;99.90
14283;DHT22;7225;59.282;18.344;2023-01-16T03:39:43;4.90;99.90
14283;DHT22;7225;59.282;18.344;2023-01-16T03:42:15;4.90;99.90
14283;DHT22;7225;59.282;18.344;2023-01-16T03:44:48;4.90;99.90
14283;DHT22;7225;59.282;18.344;2023-01-16T03:47:26;4.80;99.90
14283;DHT22;7225;59.282;18.344;2023-01-16T03:50:03;4.90;99.90
14283;DHT22;7225;59.282;18.344;2023-01-16T03:52:39;4.80;99.90
14283;DHT22;7225;59.282;18.344;2023-01-16T03:56:10;4.80;99.90
14283;DHT22;7225;59.282;18.344;2023-01-16T03:58:08;4.80;99.90
14283;DHT22;7225;59.282;18.344;2023-01-16T04:00:47;4.80;99.90
14283;DHT22;7225;59.282;18.344;2023-01-16T04:03:21;4.80;99.90
14283;DHT22;7225;59.282;18.344;2023-01-16T04:06:09;4.80;99.90
14283;DHT22;7225;59.282;18.344;2023-01-16T04:08:40;4.80;99.90
14283;DHT22;7225;59.282;18.344;2023-01-16T04:11:09;4.80;99.90
14283;DHT22;7225;59.282;18.344;2023-01-16T04:13:40;4.80;99.90
14283;DHT22;7225;59.282;18.344;2023-01-16T04:16:10;4.80;99.90
14283;DHT22;7225;59.282;18.344;2023-01-16T04:18:41;4.80;99.90
14283;DHT22;7225;59.282;18.344;2023-01-16T04:21:08;4.80;99.90
14283;DHT22;7225;59.282;18.344;2023-01-16T04:23:36;4.80;99.90
14283;DHT22;7225;59.282;18.344;2023-01-16T04:26:04;4.80;99.90
14283;DHT22;7225;59.282;18.344;2023-01-16T04:28:31;4.80;99.90
14283;DHT22;7225;59.282;18.344;2023-01-16T04:30:58;4.80;99.90
14283;DHT22;7225;59.282;18.344;2023-01-16T04:33:25;4.80;99.90
14283;DHT22;7225;59.282;18.344;2023-01-16T04:35:52;4.80;99.90
14283;DHT22;7225;59.282;18.344;2023-01-16T04:38:20;4.80;99.90
14283;DHT22;7225;59.282;18.344;2023-01-16T04:40:47;4.70;99.90
14283;DHT22;7225;59.282;18.344;2023-01-16T04:43:15;4.70;99.90
14283;DHT22;7225;59.282;18.344;2023-01-16T04:45:42;4.60;99.90
14283;DHT22;7225;59.282;18.344;2023-01-16T04:48:09;4.60;99.90
14283;DHT22;7225;59.282;18.344;2023-01-16T04:50:37;4.60;99.90
14283;DHT22;7225;59.282;18.344;2023-01-16T04:53:04;4.60;99.90
14283;DHT22;7225;59.282;18.344;2023-01-16T04:55:31;4.60;99.90
14283;DHT22;7225;59.282;18.344;2023-01-16T04:57:59;4.60;99.90
14283;DHT22;7225;59.282;18.344;2023-01-16T05:00:26;4.60;99.90
14283;DHT22;7225;59.282;18.344;2023-01-16T05:02:53;4.60;99.90
14283;DHT22;7225;59.282;18.344;2023-01-16T05:05:20;4.60;99.90
14283;DHT22;7225;59.282;18.344;2023-01-16T05:07:47;4.60;99.90
14283;DHT22;7225;59.282;18.344;2023-01-16T05:10:34;4.60;99.90
14283;DHT22;7225;59.282;18.344;2023-01-16T05:13:01;4.60;99.90
14283;DHT22;7225;59.282;18.344;2023-01-16T05:15:28;4.60;99.90
14283;DHT22;7225;59.282;18.344;2023-01-16T05:17:55;4.60;99.90
14283;DHT22;7225;59.282;18.344;2023-01-16T05:20:24;4.60;99.90
14283;DHT22;7225;59.282;18.344;2023-01-16T05:22:53;4.60;99.90
14283;DHT22;7225;59.282;18.344;2023-01-16T05:25:20;4.60;99.90
14283;DHT22;7225;59.282;18.344;2023-01-16T05:27:50;4.60;99.90
14283;DHT22;7225;59.282;18.344;2023-01-16T05:30:18;4.50;99.90
14283;DHT22;7225;59.282;18.344;2023-01-16T05:32:46;4.60;99.90
14283;DHT22;7225;59.282;18.344;2023-01-16T05:35:16;4.50;99.90
14283;DHT22;7225;59.282;18.344;2023-01-16T05:37:45;4.50;99.90
14283;DHT22;7225;59.282;18.344;2023-01-16T05:40:13;4.50;99.90
14283;DHT22;7225;59.282;18.344;2023-01-16T05:42:43;4.50;99.90
14283;DHT22;7225;59.282;18.344;2023-01-16T05:45:11;4.50;99.90
14283;DHT22;7225;59.282;18.344;2023-01-16T05:47:39;4.40;99.90
14283;DHT22;7225;59.282;18.344;2023-01-16T05:50:07;4.40;99.90
14283;DHT22;7225;59.282;18.344;2023-01-16T05:52:35;4.40;99.90
14283;DHT22;7225;59.282;18.344;2023-01-16T05:55:03;4.40;99.90
14283;DHT22;7225;59.282;18.344;2023-01-16T05:57:31;4.40;99.90
14283;DHT22;7225;59.282;18.344;2023-01-16T05:59:58;4.40;99.90
14283;DHT22;7225;59.282;18.344;2023-01-16T06:02:25;4.40;99.90
14283;DHT22;7225;59.282;18.344;2023-01-16T06:04:53;4.40;99.90
14283;DHT22;7225;59.282;18.344;2023-01-16T06:07:21;4.40;99.90
14283;DHT22;7225;59.282;18.344;2023-01-16T06:09:48;4.30;99.90
14283;DHT22;7225;59.282;18.344;2023-01-16T06:12:17;4.40;99.90
14283;DHT22;7225;59.282;18.344;2023-01-16T06:14:45;4.30;99.90
14283;DHT22;7225;59.282;18.344;2023-01-16T06:17:16;4.40;99.90
14283;DHT22;7225;59.282;18.344;2023-01-16T06:19:46;4.30;99.90
14283;DHT22;7225;59.282;18.344;2023-01-16T06:22:15;4.40;99.90
14283;DHT22;7225;59.282;18.344;2023-01-16T06:24:43;4.40;99.90
14283;DHT22;7225;59.282;18.344;2023-01-16T06:27:10;4.30;99.90
14283;DHT22;7225;59.282;18.344;2023-01-16T06:29:39;4.30;99.90
14283;DHT22;7225;59.282;18.344;2023-01-16T06:32:06;4.30;99.90
14283;DHT22;7225;59.282;18.344;2023-01-16T06:34:33;4.30;99.90
14283;DHT22;7225;59.282;18.344;2023-01-16T06:37:03;4.20;99.90
14283;DHT22;7225;59.282;18.344;2023-01-16T06:39:30;4.20;99.90
14283;DHT22;7225;59.282;18.344;2023-01-16T06:41:58;4.20;99.90
14283;DHT22;7225;59.282;18.344;2023-01-16T06:44:25;4.20;99.90
14283;DHT22;7225;59.282;18.344;2023-01-16T06:46:52;4.10;99.90
14283;DHT22;7225;59.282;18.344;2023-01-16T06:49:21;4.10;99.90
14283;DHT22;7225;59.282;18.344;2023-01-16T06:51:49;4.10;99.90
14283;DHT22;7225;59.282;18.344;2023-01-16T06:54:16;4.00;99.90
14283;DHT22;7225;59.282;18.344;2023-01-16T06:56:43;4.00;99.90
14283;DHT22;7225;59.282;18.344;2023-01-16T06:59:10;4.00;99.90
14283;DHT22;7225;59.282;18.344;2023-01-16T07:01:38;4.00;99.90
14283;DHT22;7225;59.282;18.344;2023-01-16T07:04:06;4.00;99.90
14283;DHT22;7225;59.282;18.344;2023-01-16T07:06:33;4.00;99.90
14283;DHT22;7225;59.282;18.344;2023-01-16T07:09:02;4.00;99.90
14283;DHT22;7225;59.282;18.344;2023-01-16T07:11:29;4.00;99.90
14283;DHT22;7225;59.282;18.344;2023-01-16T07:13:56;4.00;99.90
14283;DHT22;7225;59.282;18.344;2023-01-16T07:16:42;4.00;99.90
14283;DHT22;7225;59.282;18.344;2023-01-16T07:19:27;3.90;99.90
14283;DHT22;7225;59.282;18.344;2023-01-16T07:22:24;3.90;99.90
14283;DHT22;7225;59.282;18.344;2023-01-16T07:25:23;3.90;99.90
14283;DHT22;7225;59.282;18.344;2023-01-16T07:27:52;3.90;99.90
14283;DHT22;7225;59.282;18.344;2023-01-16T07:30:21;3.90;99.90
14283;DHT22;7225;59.282;18.344;2023-01-16T07:32:50;3.90;99.90
14283;DHT22;7225;59.282;18.344;2023-01-16T07:35:18;3.90;99.90
14283;DHT22;7225;59.282;18.344;2023-01-16T07:37:46;3.90;99.90
14283;DHT22;7225;59.282;18.344;2023-01-16T07:40:13;3.90;99.90
14283;DHT22;7225;59.282;18.344;2023-01-16T07:42:41;3.90;99.90
14283;DHT22;7225;59.282;18.344;2023-01-16T07:45:09;3.90;99.90
14283;DHT22;7225;59.282;18.344;2023-01-16T07:47:36;3.90;99.90
14283;DHT22;7225;59.282;18.344;2023-01-16T07:50:04;3.80;99.90
14283;DHT22;7225;59.282;18.344;2023-01-16T07:52:34;3.80;99.90
14283;DHT22;7225;59.282;18.344;2023-01-16T07:55:02;3.80;99.90
14283;DHT22;7225;59.282;18.344;2023-01-16T07:57:29;3.80;99.90
14283;DHT22;7225;59.282;18.344;2023-01-16T07:59:57;3.70;99.90
14283;DHT22;7225;59.282;18.344;2023-01-16T08:02:26;3.70;99.90
14283;DHT22;7225;59.282;18.344;2023-01-16T08:04:53;3.70;99.90
14283;DHT22;7225;59.282;18.344;2023-01-16T08:07:20;3.70;99.90
14283;DHT22;7225;59.282;18.344;2023-01-16T08:09:47;3.70;99.90
14283;DHT22;7225;59.282;18.344;2023-01-16T08:12:14;3.70;99.90
14283;DHT22;7225;59.282;18.344;2023-01-16T08:14:41;3.70;99.90
14283;DHT22;7225;59.282;18.344;2023-01-16T08:17:09;3.70;99.90
14283;DHT22;7225;59.282;18.344;2023-01-16T08:19:36;3.70;99.90
14283;DHT22;7225;59.282;18.344;2023-01-16T08:22:04;3.70;99.90
14283;DHT22;7225;59.282;18.344;2023-01-16T08:24:31;3.70;99.90
14283;DHT22;7225;59.282;18.344;2023-01-16T08:26:58;3.60;99.90
14283;DHT22;7225;59.282;18.344;2023-01-16T08:29:28;3.60;99.90
14283;DHT22;7225;59.282;18.344;2023-01-16T08:31:56;3.60;99.90
14283;DHT22;7225;59.282;18.344;2023-01-16T08:34:23;3.60;99.90
14283;DHT22;7225;59.282;18.344;2023-01-16T08:36:51;3.60;99.90
14283;DHT22;7225;59.282;18.344;2023-01-16T08:39:19;3.50;99.90
14283;DHT22;7225;59.282;18.344;2023-01-16T08:41:46;3.60;99.90
14283;DHT22;7225;59.282;18.344;2023-01-16T08:44:33;3.50;99.90
14283;DHT22;7225;59.282;18.344;2023-01-16T08:47:22;3.50;99.90
14283;DHT22;7225;59.282;18.344;2023-01-16T08:50:12;3.60;99.90
14283;DHT22;7225;59.282;18.344;2023-01-16T08:52:59;3.60;99.90
14283;DHT22;7225;59.282;18.344;2023-01-16T08:55:27;3.60;99.90
14283;DHT22;7225;59.282;18.344;2023-01-16T08:57:55;3.60;99.90
14283;DHT22;7225;59.282;18.344;2023-01-16T09:00:27;3.50;99.90
14283;DHT22;7225;59.282;18.344;2023-01-16T09:02:55;3.50;99.90
14283;DHT22;7225;59.282;18.344;2023-01-16T09:05:26;3.50;99.90
14283;DHT22;7225;59.282;18.344;2023-01-16T09:07:54;3.50;99.90
14283;DHT22;7225;59.282;18.344;2023-01-16T09:10:21;3.50;99.90
14283;DHT22;7225;59.282;18.344;2023-01-16T09:12:49;3.50;99.90
14283;DHT22;7225;59.282;18.344;2023-01-16T09:15:36;3.50;99.90
14283;DHT22;7225;59.282;18.344;2023-01-16T09:18:03;3.50;99.90
14283;DHT22;7225;59.282;18.344;2023-01-16T09:20:31;3.50;99.90
14283;DHT22;7225;59.282;18.344;2023-01-16T09:23:03;3.50;99.90
14283;DHT22;7225;59.282;18.344;2023-01-16T09:25:31;3.50;99.90
14283;DHT22;7225;59.282;18.344;2023-01-16T09:27:59;3.50;99.90
14283;DHT22;7225;59.282;18.344;2023-01-16T09:30:27;3.50;99.90
14283;DHT22;7225;59.282;18.344;2023-01-16T09:32:54;3.50;99.90
14283;DHT22;7225;59.282;18.344;2023-01-16T09:35:22;3.50;99.90
14283;DHT22;7225;59.282;18.344;2023-01-16T09:37:50;3.60;99.90
14283;DHT22;7225;59.282;18.344;2023-01-16T09:40:21;3.60;99.90
14283;DHT22;7225;59.282;18.344;2023-01-16T09:45:56;3.60;99.90
14283;DHT22;7225;59.282;18.344;2023-01-16T09:48:38;3.60;99.90
14283;DHT22;7225;59.282;18.344;2023-01-16T09:51:31;3.70;99.90
14283;DHT22;7225;59.282;18.344;2023-01-16T09:54:04;3.70;99.90
14283;DHT22;7225;59.282;18.344;2023-01-16T09:56:58;3.80;99.90
14283;DHT22;7225;59.282;18.344;2023-01-16T09:59:51;3.80;99.90
14283;DHT22;7225;59.282;18.344;2023-01-16T10:02:33;3.90;99.90
14283;DHT22;7225;59.282;18.344;2023-01-16T10:05:03;3.90;99.90
14283;DHT22;7225;59.282;18.344;2023-01-16T10:12:35;4.10;99.90
14283;DHT22;7225;59.282;18.344;2023-01-16T10:15:53;4.10;99.90
14283;DHT22;7225;59.282;18.344;2023-01-16T10:27:18;4.30;99.90
14283;DHT22;7225;59.282;18.344;2023-01-16T10:32:34;4.50;99.90
14283;DHT22;7225;59.282;18.344;2023-01-16T10:38:40;4.60;99.90
14283;DHT22;7225;59.282;18.344;2023-01-16T10:41:35;4.60;99.90
14283;DHT22;7225;59.282;18.344;2023-01-16T10:44:42;4.70;99.90
14283;DHT22;7225;59.282;18.344;2023-01-16T10:47:34;4.80;99.90
14283;DHT22;7225;59.282;18.344;2023-01-16T10:50:23;4.90;99.90
14283;DHT22;7225;59.282;18.344;2023-01-16T10:53:05;4.90;99.90
14283;DHT22;7225;59.282;18.344;2023-01-16T10:55:35;4.90;99.90
14283;DHT22;7225;59.282;18.344;2023-01-16T11:01:19;5.10;99.90
14283;DHT22;7225;59.282;18.344;2023-01-16T11:03:56;5.10;99.90
14283;DHT22;7225;59.282;18.344;2023-01-16T11:06:27;5.10;99.90
14283;DHT22;7225;59.282;18.344;2023-01-16T11:11:30;5.00;99.90
14283;DHT22;7225;59.282;18.344;2023-01-16T11:14:30;4.90;99.90
14283;DHT22;7225;59.282;18.344;2023-01-16T11:17:23;4.80;99.90
14283;DHT22;7225;59.282;18.344;2023-01-16T11:20:17;4.80;99.90
14283;DHT22;7225;59.282;18.344;2023-01-16T11:22:58;4.80;99.90
14283;DHT22;7225;59.282;18.344;2023-01-16T11:25:27;4.80;99.90
14283;DHT22;7225;59.282;18.344;2023-01-16T11:27:57;4.90;99.90
14283;DHT22;7225;59.282;18.344;2023-01-16T11:30:31;5.00;99.90
14283;DHT22;7225;59.282;18.344;2023-01-16T11:33:00;5.10;99.90
14283;DHT22;7225;59.282;18.344;2023-01-16T11:35:36;5.30;99.90
14283;DHT22;7225;59.282;18.344;2023-01-16T11:38:06;5.40;99.90
14283;DHT22;7225;59.282;18.344;2023-01-16T11:40:37;5.50;99.90
14283;DHT22;7225;59.282;18.344;2023-01-16T11:43:16;5.50;99.90
14283;DHT22;7225;59.282;18.344;2023-01-16T11:46:19;5.60;99.90
14283;DHT22;7225;59.282;18.344;2023-01-16T11:48:54;5.70;99.90
14283;DHT22;7225;59.282;18.344;2023-01-16T11:51:29;5.70;99.90
14283;DHT22;7225;59.282;18.344;2023-01-16T11:53:59;5.70;99.90
14283;DHT22;7225;59.282;18.344;2023-01-16T12:02:17;5.90;99.90
14283;DHT22;7225;59.282;18.344;2023-01-16T12:05:00;6.00;99.90
14283;DHT22;7225;59.282;18.344;2023-01-16T12:11:06;6.10;99.90
14283;DHT22;7225;59.282;18.344;2023-01-16T12:16:55;6.30;99.90
14283;DHT22;7225;59.282;18.344;2023-01-16T12:19:35;6.40;99.90
14283;DHT22;7225;59.282;18.344;2023-01-16T12:22:13;6.50;99.90
14283;DHT22;7225;59.282;18.344;2023-01-16T12:33:30;6.50;99.90
14283;DHT22;7225;59.282;18.344;2023-01-16T12:41:29;6.20;99.90
14283;DHT22;7225;59.282;18.344;2023-01-16T12:44:44;6.20;99.90
14283;DHT22;7225;59.282;18.344;2023-01-16T12:50:12;6.20;99.90
14283;DHT22;7225;59.282;18.344;2023-01-16T12:58:37;6.10;99.90
14283;DHT22;7225;59.282;18.344;2023-01-16T13:01:18;6.10;99.90
14283;DHT22;7225;59.282;18.344;2023-01-16T13:04:51;6.00;99.90
14283;DHT22;7225;59.282;18.344;2023-01-16T13:06:55;6.00;99.90
14283;DHT22;7225;59.282;18.344;2023-01-16T13:09:40;5.90;99.90
14283;DHT22;7225;59.282;18.344;2023-01-16T13:12:25;5.80;99.90
14283;DHT22;7225;59.282;18.344;2023-01-16T13:15:22;5.70;99.90
14283;DHT22;7225;59.282;18.344;2023-01-16T13:20:25;5.60;99.90
14283;DHT22;7225;59.282;18.344;2023-01-16T13:22:58;5.60;99.90
14283;DHT22;7225;59.282;18.344;2023-01-16T13:25:39;5.60;99.90
14283;DHT22;7225;59.282;18.344;2023-01-16T13:31:31;5.50;99.90
14283;DHT22;7225;59.282;18.344;2023-01-16T13:34:16;5.50;99.90
14283;DHT22;7225;59.282;18.344;2023-01-16T13:39:50;5.40;99.90
14283;DHT22;7225;59.282;18.344;2023-01-16T13:42:25;5.30;99.90
14283;DHT22;7225;59.282;18.344;2023-01-16T13:44:58;5.20;99.90
14283;DHT22;7225;59.282;18.344;2023-01-16T13:47:47;5.30;99.90
14283;DHT22;7225;59.282;18.344;2023-01-16T13:50:25;5.20;99.90
14283;DHT22;7225;59.282;18.344;2023-01-16T13:53:02;5.20;99.90
14283;DHT22;7225;59.282;18.344;2023-01-16T13:55:37;5.20;99.90
14283;DHT22;7225;59.282;18.344;2023-01-16T14:00:36;5.10;99.90
14283;DHT22;7225;59.282;18.344;2023-01-16T14:03:24;5.10;99.90
14283;DHT22;7225;59.282;18.344;2023-01-16T14:06:25;5.10;99.90
14283;DHT22;7225;59.282;18.344;2023-01-16T14:23:24;4.90;99.90
14283;DHT22;7225;59.282;18.344;2023-01-16T14:29:35;4.90;99.90
14283;DHT22;7225;59.282;18.344;2023-01-16T14:35:01;4.80;99.90
14283;DHT22;7225;59.282;18.344;2023-01-16T14:37:43;4.80;99.90
14283;DHT22;7225;59.282;18.344;2023-01-16T14:40:21;4.70;99.90
14283;DHT22;7225;59.282;18.344;2023-01-16T14:42:54;4.60;99.90
14283;DHT22;7225;59.282;18.344;2023-01-16T14:46:12;4.70;99.90
14283;DHT22;7225;59.282;18.344;2023-01-16T14:55:23;4.70;99.90
14283;DHT22;7225;59.282;18.344;2023-01-16T14:57:54;4.60;99.90
14283;DHT22;7225;59.282;18.344;2023-01-16T15:00:37;4.60;99.90
14283;DHT22;7225;59.282;18.344;2023-01-16T15:03:14;4.60;99.90
14283;DHT22;7225;59.282;18.344;2023-01-16T15:05:57;4.60;99.90
14283;DHT22;7225;59.282;18.344;2023-01-16T15:08:35;4.60;99.90
14283;DHT22;7225;59.282;18.344;2023-01-16T15:11:24;4.50;99.90
14283;DHT22;7225;59.282;18.344;2023-01-16T15:14:16;4.50;99.90
14283;DHT22;7225;59.282;18.344;2023-01-16T15:17:41;4.50;99.90
14283;DHT22;7225;59.282;18.344;2023-01-16T15:23:26;4.50;99.90
14283;DHT22;7225;59.282;18.344;2023-01-16T15:31:34;4.40;99.90
14283;DHT22;7225;59.282;18.344;2023-01-16T15:36:43;4.40;99.90
14283;DHT22;7225;59.282;18.344;2023-01-16T15:41:58;4.30;99.90
14283;DHT22;7225;59.282;18.344;2023-01-16T15:44:47;4.30;99.90
14283;DHT22;7225;59.282;18.344;2023-01-16T15:51:00;4.20;99.90
14283;DHT22;7225;59.282;18.344;2023-01-16T15:53:37;4.20;99.90
14283;DHT22;7225;59.282;18.344;2023-01-16T15:56:20;4.20;99.90
14283;DHT22;7225;59.282;18.344;2023-01-16T15:58:50;4.10;99.90
14283;DHT22;7225;59.282;18.344;2023-01-16T16:01:28;4.10;99.90
14283;DHT22;7225;59.282;18.344;2023-01-16T16:04:01;4.10;99.90
14283;DHT22;7225;59.282;18.344;2023-01-16T16:06:30;4.10;99.90
14283;DHT22;7225;59.282;18.344;2023-01-16T16:08:58;4.10;99.90
14283;DHT22;7225;59.282;18.344;2023-01-16T16:11:29;4.10;99.90
14283;DHT22;7225;59.282;18.344;2023-01-16T16:14:20;4.20;99.90
14283;DHT22;7225;59.282;18.344;2023-01-16T16:23:05;4.10;99.90
14283;DHT22;7225;59.282;18.344;2023-01-16T16:28:22;4.00;99.90
14283;DHT22;7225;59.282;18.344;2023-01-16T16:31:02;4.00;99.90
14283;DHT22;7225;59.282;18.344;2023-01-16T16:33:32;4.00;99.90
14283;DHT22;7225;59.282;18.344;2023-01-16T16:36:02;4.00;99.90
14283;DHT22;7225;59.282;18.344;2023-01-16T16:38:42;4.00;99.90
14283;DHT22;7225;59.282;18.344;2023-01-16T16:43:58;3.90;99.90
14283;DHT22;7225;59.282;18.344;2023-01-16T16:51:52;4.00;99.90
14283;DHT22;7225;59.282;18.344;2023-01-16T16:54:25;4.00;99.90
14283;DHT22;7225;59.282;18.344;2023-01-16T16:56:56;3.90;99.90
14283;DHT22;7225;59.282;18.344;2023-01-16T16:59:28;4.00;99.90
14283;DHT22;7225;59.282;18.344;2023-01-16T17:01:59;4.10;99.90
14283;DHT22;7225;59.282;18.344;2023-01-16T17:04:31;4.10;99.90
14283;DHT22;7225;59.282;18.344;2023-01-16T17:07:00;4.10;99.90
14283;DHT22;7225;59.282;18.344;2023-01-16T17:09:30;4.10;99.90
14283;DHT22;7225;59.282;18.344;2023-01-16T17:12:18;4.10;99.90
14283;DHT22;7225;59.282;18.344;2023-01-16T17:14:48;4.10;99.90
14283;DHT22;7225;59.282;18.344;2023-01-16T17:17:18;4.10;99.90
14283;DHT22;7225;59.282;18.344;2023-01-16T17:19:47;4.20;99.90
14283;DHT22;7225;59.282;18.344;2023-01-16T17:22:16;4.30;99.90
14283;DHT22;7225;59.282;18.344;2023-01-16T17:24:44;4.30;99.90
14283;DHT22;7225;59.282;18.344;2023-01-16T17:27:12;4.30;99.90
14283;DHT22;7225;59.282;18.344;2023-01-16T17:29:40;4.30;99.90
14283;DHT22;7225;59.282;18.344;2023-01-16T17:32:26;4.30;99.90
14283;DHT22;7225;59.282;18.344;2023-01-16T17:34:56;4.30;99.90
14283;DHT22;7225;59.282;18.344;2023-01-16T17:37:25;4.30;99.90
14283;DHT22;7225;59.282;18.344;2023-01-16T17:39:54;4.30;99.90
14283;DHT22;7225;59.282;18.344;2023-01-16T17:42:22;4.30;99.90
14283;DHT22;7225;59.282;18.344;2023-01-16T17:48:11;4.30;99.90
14283;DHT22;7225;59.282;18.344;2023-01-16T17:50:38;4.30;99.90
14283;DHT22;7225;59.282;18.344;2023-01-16T17:53:09;4.30;99.90
14283;DHT22;7225;59.282;18.344;2023-01-16T17:55:38;4.30;99.90
14283;DHT22;7225;59.282;18.344;2023-01-16T17:58:23;4.30;99.90
14283;DHT22;7225;59.282;18.344;2023-01-16T18:00:57;4.30;99.90
14283;DHT22;7225;59.282;18.344;2023-01-16T18:03:28;4.40;99.90
14283;DHT22;7225;59.282;18.344;2023-01-16T18:06:02;4.30;99.90
14283;DHT22;7225;59.282;18.344;2023-01-16T18:08:31;4.30;99.90
14283;DHT22;7225;59.282;18.344;2023-01-16T18:11:03;4.30;99.90
14283;DHT22;7225;59.282;18.344;2023-01-16T18:13:52;4.30;99.90
14283;DHT22;7225;59.282;18.344;2023-01-16T18:16:38;4.40;99.90
14283;DHT22;7225;59.282;18.344;2023-01-16T18:19:25;4.40;99.90
14283;DHT22;7225;59.282;18.344;2023-01-16T18:21:53;4.50;99.90
14283;DHT22;7225;59.282;18.344;2023-01-16T18:24:41;4.50;99.90
14283;DHT22;7225;59.282;18.344;2023-01-16T18:27:11;4.50;99.90
14283;DHT22;7225;59.282;18.344;2023-01-16T18:29:40;4.50;99.90
14283;DHT22;7225;59.282;18.344;2023-01-16T18:32:10;4.50;99.90
14283;DHT22;7225;59.282;18.344;2023-01-16T18:34:58;4.40;99.90
14283;DHT22;7225;59.282;18.344;2023-01-16T18:40:10;4.50;99.90
14283;DHT22;7225;59.282;18.344;2023-01-16T18:42:59;4.50;99.90
14283;DHT22;7225;59.282;18.344;2023-01-16T18:45:46;4.50;99.90
14283;DHT22;7225;59.282;18.344;2023-01-16T18:48:33;4.50;99.90
14283;DHT22;7225;59.282;18.344;2023-01-16T18:51:19;4.50;99.90
14283;DHT22;7225;59.282;18.344;2023-01-16T18:54:20;4.50;99.90
14283;DHT22;7225;59.282;18.344;2023-01-16T18:57:10;4.60;99.90
14283;DHT22;7225;59.282;18.344;2023-01-16T18:59:59;4.50;99.90
14283;DHT22;7225;59.282;18.344;2023-01-16T19:02:51;4.50;99.90
14283;DHT22;7225;59.282;18.344;2023-01-16T19:05:21;4.50;99.90
14283;DHT22;7225;59.282;18.344;2023-01-16T19:07:51;4.50;99.90
14283;DHT22;7225;59.282;18.344;2023-01-16T19:10:29;4.50;99.90
14283;DHT22;7225;59.282;18.344;2023-01-16T19:12:59;4.50;99.90
14283;DHT22;7225;59.282;18.344;2023-01-16T19:15:29;4.50;99.90
14283;DHT22;7225;59.282;18.344;2023-01-16T19:17:58;4.50;99.90
14283;DHT22;7225;59.282;18.344;2023-01-16T19:20:26;4.50;99.90
14283;DHT22;7225;59.282;18.344;2023-01-16T19:22:57;4.50;99.90
14283;DHT22;7225;59.282;18.344;2023-01-16T19:25:25;4.50;99.90
14283;DHT22;7225;59.282;18.344;2023-01-16T19:27:54;4.50;99.90